WMKK

Kuala Lumpur International Airport

Kuala Lumpur, Malaysia
TAF WMKK 231700Z 2318/2500 31005KT 9999 FEW030 TEMPO 2407/2411 3000 TSRA FEW008 FEW015CB
Issued Valid From Valid To
Apr-23 @ 17:00 UTC
(6 hours ago)
Apr-23 @ 18:00 UTC
(5 hours ago)
Apr-25 @ 00:00 UTC
(-1 days ago)
Apr-23 @ 18:00 to Apr-25 @ 00:00
TAF WMKK 231700Z 2318/2500 31005KT 9999 FEW030
Wind Visibility Clouds
310° at 5 knots 10,000+ meters
  • Few at 3,000' AGL
Temporary Apr-24 @ 07:00 to Apr-24 @ 11:00
TEMPO 2407/2411 3000 TSRA FEW008 FEW015CB
Visibility Clouds Conditions
2,993 meters
  • Few at 800' AGL
  • Few at 1,500' AGL
  • Thunderstorm
  • Rain
TAF WMKK 231700Z 2318/2500 31005KT 9999 FEW030 TEMPO 2407/2411 3000 TSRA FEW008 FEW015CB
Issued Apr-23 @ 17:00 UTC
(6 hours ago)
Valid From Apr-23 @ 18:00 UTC
(5 hours ago)
Valid To Apr-25 @ 00:00 UTC
(-1 days ago)
Apr-23 @ 18:00 - Apr-25 @ 00:00
Wind Visibility
310° at 5 knots 10,000+ meters
Clouds
  • Few at 3,000' AGL
Temporary Apr-24 @ 07:00 - Apr-24 @ 11:00
Clouds
  • Few at 800' AGL
  • Few at 1,500' AGL
Conditions
  • Thunderstorm
  • Rain